sensor_id;sensor_type;location;lat;lon;timestamp;pressure;altitude;pressure_sealevel;temperature;humidity
45441;BME280;31189;38.790;-77.084;2024-03-07T00:01:00;100704.50;;;16.96;62.15
45441;BME280;31189;38.790;-77.084;2024-03-07T00:03:25;100709.95;;;16.98;62.78
45441;BME280;31189;38.790;-77.084;2024-03-07T00:05:51;100715.13;;;17.35;61.45
45441;BME280;31189;38.790;-77.084;2024-03-07T00:08:16;100710.87;;;17.26;61.52
45441;BME280;31189;38.790;-77.084;2024-03-07T00:10:42;100707.30;;;16.95;61.83
45441;BME280;31189;38.790;-77.084;2024-03-07T00:13:07;100707.81;;;17.18;61.63
45441;BME280;31189;38.790;-77.084;2024-03-07T00:15:33;100707.27;;;17.57;60.74
45441;BME280;31189;38.790;-77.084;2024-03-07T00:17:58;100704.30;;;17.71;60.19
45441;BME280;31189;38.790;-77.084;2024-03-07T00:20:24;100701.82;;;17.75;59.94
45441;BME280;31189;38.790;-77.084;2024-03-07T00:22:50;100701.57;;;17.66;60.01
45441;BME280;31189;38.790;-77.084;2024-03-07T00:25:15;100697.74;;;17.55;60.72
45441;BME280;31189;38.790;-77.084;2024-03-07T00:27:41;100697.75;;;17.71;60.23
45441;BME280;31189;38.790;-77.084;2024-03-07T00:30:07;100693.15;;;17.57;60.09
45441;BME280;31189;38.790;-77.084;2024-03-07T00:32:33;100685.08;;;17.87;59.79
45441;BME280;31189;38.790;-77.084;2024-03-07T00:34:58;100671.84;;;17.62;60.02
45441;BME280;31189;38.790;-77.084;2024-03-07T00:37:24;100658.55;;;17.00;61.35
45441;BME280;31189;38.790;-77.084;2024-03-07T00:39:49;100648.55;;;17.27;61.23
45441;BME280;31189;38.790;-77.084;2024-03-07T00:42:15;100643.39;;;16.61;63.47
45441;BME280;31189;38.790;-77.084;2024-03-07T00:44:40;100636.99;;;15.85;65.34
45441;BME280;31189;38.790;-77.084;2024-03-07T00:47:07;100626.60;;;16.32;64.84
45441;BME280;31189;38.790;-77.084;2024-03-07T00:49:31;100623.00;;;15.88;66.79
45441;BME280;31189;38.790;-77.084;2024-03-07T00:51:58;100624.15;;;15.79;67.74
45441;BME280;31189;38.790;-77.084;2024-03-07T00:54:23;100627.25;;;16.40;66.20
45441;BME280;31189;38.790;-77.084;2024-03-07T00:56:48;100637.14;;;15.38;69.08
45441;BME280;31189;38.790;-77.084;2024-03-07T00:59:14;100641.94;;;15.69;68.97
45441;BME280;31189;38.790;-77.084;2024-03-07T01:01:39;100646.11;;;15.78;69.26
45441;BME280;31189;38.790;-77.084;2024-03-07T01:04:05;100656.29;;;16.56;66.21
45441;BME280;31189;38.790;-77.084;2024-03-07T01:06:31;100668.56;;;15.90;66.92
45441;BME280;31189;38.790;-77.084;2024-03-07T01:08:56;100684.07;;;15.42;69.63
45441;BME280;31189;38.790;-77.084;2024-03-07T01:11:22;100685.59;;;15.97;68.67
45441;BME280;31189;38.790;-77.084;2024-03-07T01:13:47;100691.45;;;15.98;68.98
45441;BME280;31189;38.790;-77.084;2024-03-07T01:16:13;100691.59;;;15.95;68.25
45441;BME280;31189;38.790;-77.084;2024-03-07T01:18:39;100691.04;;;16.40;66.50
45441;BME280;31189;38.790;-77.084;2024-03-07T01:21:05;100690.25;;;16.23;67.15
45441;BME280;31189;38.790;-77.084;2024-03-07T01:23:33;100689.63;;;13.61;77.92
45441;BME280;31189;38.790;-77.084;2024-03-07T01:25:56;100695.18;;;14.51;77.87
45441;BME280;31189;38.790;-77.084;2024-03-07T01:28:20;100695.16;;;15.31;74.64
45441;BME280;31189;38.790;-77.084;2024-03-07T01:30:46;100688.32;;;15.38;72.28
45441;BME280;31189;38.790;-77.084;2024-03-07T01:33:11;100682.62;;;15.93;70.34
45441;BME280;31189;38.790;-77.084;2024-03-07T01:35:37;100675.31;;;15.95;69.42
45441;BME280;31189;38.790;-77.084;2024-03-07T01:38:02;100674.56;;;16.03;69.30
45441;BME280;31189;38.790;-77.084;2024-03-07T01:40:28;100677.34;;;16.08;68.36
45441;BME280;31189;38.790;-77.084;2024-03-07T01:42:54;100680.50;;;16.03;67.70
45441;BME280;31189;38.790;-77.084;2024-03-07T01:45:20;100679.98;;;15.12;70.41
45441;BME280;31189;38.790;-77.084;2024-03-07T01:47:46;100678.89;;;15.79;68.73
45441;BME280;31189;38.790;-77.084;2024-03-07T01:50:11;100678.22;;;15.99;68.79
45441;BME280;31189;38.790;-77.084;2024-03-07T01:52:38;100672.36;;;14.67;73.48
45441;BME280;31189;38.790;-77.084;2024-03-07T01:55:03;100661.00;;;15.89;68.71
45441;BME280;31189;38.790;-77.084;2024-03-07T01:57:27;100654.81;;;16.32;67.56
45441;BME280;31189;38.790;-77.084;2024-03-07T01:59:59;100648.85;;;16.43;66.18
45441;BME280;31189;38.790;-77.084;2024-03-07T02:02:21;100646.68;;;16.41;66.31
45441;BME280;31189;38.790;-77.084;2024-03-07T02:04:43;100640.74;;;16.61;65.42
45441;BME280;31189;38.790;-77.084;2024-03-07T02:07:10;100651.95;;;16.16;66.69
45441;BME280;31189;38.790;-77.084;2024-03-07T02:09:35;100667.87;;;15.46;69.34
45441;BME280;31189;38.790;-77.084;2024-03-07T02:12:02;100677.91;;;16.25;68.53
45441;BME280;31189;38.790;-77.084;2024-03-07T02:14:29;100674.47;;;14.47;77.21
45441;BME280;31189;38.790;-77.084;2024-03-07T02:16:52;100656.66;;;14.83;73.41
45441;BME280;31189;38.790;-77.084;2024-03-07T02:19:17;100643.68;;;15.61;71.26
45441;BME280;31189;38.790;-77.084;2024-03-07T02:21:42;100635.73;;;15.16;72.61
45441;BME280;31189;38.790;-77.084;2024-03-07T02:24:08;100633.48;;;15.26;70.93
45441;BME280;31189;38.790;-77.084;2024-03-07T02:26:36;100633.16;;;15.46;71.57
45441;BME280;31189;38.790;-77.084;2024-03-07T02:28:59;100636.54;;;15.89;69.04
45441;BME280;31189;38.790;-77.084;2024-03-07T02:31:26;100626.68;;;15.71;70.04
45441;BME280;31189;38.790;-77.084;2024-03-07T02:33:50;100609.64;;;16.52;67.45
45441;BME280;31189;38.790;-77.084;2024-03-07T02:36:15;100594.18;;;16.31;68.07
45441;BME280;31189;38.790;-77.084;2024-03-07T02:38:43;100599.79;;;15.61;68.49
45441;BME280;31189;38.790;-77.084;2024-03-07T02:41:08;100606.03;;;16.31;68.02
45441;BME280;31189;38.790;-77.084;2024-03-07T02:43:32;100627.58;;;15.88;67.80
45441;BME280;31189;38.790;-77.084;2024-03-07T02:45:59;100630.32;;;13.80;77.13
45441;BME280;31189;38.790;-77.084;2024-03-07T02:48:23;100627.66;;;15.14;71.68
45441;BME280;31189;38.790;-77.084;2024-03-07T02:50:48;100630.69;;;15.36;71.62
45441;BME280;31189;38.790;-77.084;2024-03-07T02:53:14;100632.53;;;16.00;69.18
45441;BME280;31189;38.790;-77.084;2024-03-07T02:55:40;100633.60;;;16.04;68.27
45441;BME280;31189;38.790;-77.084;2024-03-07T02:58:05;100640.71;;;16.08;68.77
45441;BME280;31189;38.790;-77.084;2024-03-07T03:00:31;100640.69;;;14.99;71.26
45441;BME280;31189;38.790;-77.084;2024-03-07T03:02:58;100646.65;;;14.81;73.04
45441;BME280;31189;38.790;-77.084;2024-03-07T03:05:21;100661.42;;;14.44;77.26
45441;BME280;31189;38.790;-77.084;2024-03-07T03:07:46;100676.87;;;13.87;79.39
45441;BME280;31189;38.790;-77.084;2024-03-07T03:10:12;100681.05;;;13.56;81.45
45441;BME280;31189;38.790;-77.084;2024-03-07T03:12:38;100680.23;;;14.23;78.49
45441;BME280;31189;38.790;-77.084;2024-03-07T03:15:03;100688.01;;;12.00;91.66
45441;BME280;31189;38.790;-77.084;2024-03-07T03:17:28;100698.12;;;13.02;85.83
45441;BME280;31189;38.790;-77.084;2024-03-07T03:19:54;100703.07;;;13.29;82.58
45441;BME280;31189;38.790;-77.084;2024-03-07T03:22:21;100698.20;;;11.61;95.43
45441;BME280;31189;38.790;-77.084;2024-03-07T03:24:45;100676.24;;;13.07;85.30
45441;BME280;31189;38.790;-77.084;2024-03-07T03:27:11;100651.32;;;13.96;80.60
45441;BME280;31189;38.790;-77.084;2024-03-07T03:29:37;100640.40;;;14.51;78.36
45441;BME280;31189;38.790;-77.084;2024-03-07T03:32:02;100629.13;;;12.87;85.11
45441;BME280;31189;38.790;-77.084;2024-03-07T03:34:28;100618.34;;;14.32;78.82
45441;BME280;31189;38.790;-77.084;2024-03-07T03:36:53;100625.60;;;14.97;76.21
45441;BME280;31189;38.790;-77.084;2024-03-07T03:39:19;100640.43;;;13.89;78.19
45441;BME280;31189;38.790;-77.084;2024-03-07T03:41:44;100642.51;;;11.36;97.33
45441;BME280;31189;38.790;-77.084;2024-03-07T03:44:10;100643.58;;;13.57;83.51
45441;BME280;31189;38.790;-77.084;2024-03-07T03:46:35;100645.03;;;13.00;87.26
45441;BME280;31189;38.790;-77.084;2024-03-07T03:49:02;100643.46;;;14.31;79.37
45441;BME280;31189;38.790;-77.084;2024-03-07T03:51:27;100641.13;;;14.55;78.28
45441;BME280;31189;38.790;-77.084;2024-03-07T03:53:53;100631.30;;;13.14;86.63
45441;BME280;31189;38.790;-77.084;2024-03-07T03:56:19;100618.12;;;14.51;78.65
45441;BME280;31189;38.790;-77.084;2024-03-07T03:58:44;100620.32;;;13.38;81.73
45441;BME280;31189;38.790;-77.084;2024-03-07T04:01:10;100625.63;;;13.62;82.40
45441;BME280;31189;38.790;-77.084;2024-03-07T04:03:35;100627.45;;;14.35;77.80
45441;BME280;31189;38.790;-77.084;2024-03-07T04:06:01;100625.96;;;14.39;76.41
45441;BME280;31189;38.790;-77.084;2024-03-07T04:08:26;100625.34;;;15.54;72.36
45441;BME280;31189;38.790;-77.084;2024-03-07T04:10:51;100625.96;;;15.02;72.56
45441;BME280;31189;38.790;-77.084;2024-03-07T04:13:17;100625.56;;;14.28;74.59
45441;BME280;31189;38.790;-77.084;2024-03-07T04:15:42;100627.30;;;14.72;73.69
45441;BME280;31189;38.790;-77.084;2024-03-07T04:18:08;100631.36;;;13.98;76.26
45441;BME280;31189;38.790;-77.084;2024-03-07T04:20:33;100631.56;;;12.60;84.82
45441;BME280;31189;38.790;-77.084;2024-03-07T04:22:58;100626.95;;;13.67;78.17
45441;BME280;31189;38.790;-77.084;2024-03-07T04:25:24;100617.81;;;14.57;75.10
45441;BME280;31189;38.790;-77.084;2024-03-07T04:27:49;100620.59;;;13.29;81.67
45441;BME280;31189;38.790;-77.084;2024-03-07T04:30:14;100610.46;;;14.65;75.12
45441;BME280;31189;38.790;-77.084;2024-03-07T04:32:39;100604.22;;;13.25;81.27
45441;BME280;31189;38.790;-77.084;2024-03-07T04:35:06;100605.37;;;14.05;78.16
45441;BME280;31189;38.790;-77.084;2024-03-07T04:37:30;100611.77;;;14.32;77.05
45441;BME280;31189;38.790;-77.084;2024-03-07T04:39:56;100621.16;;;13.90;78.15
45441;BME280;31189;38.790;-77.084;2024-03-07T04:42:21;100632.50;;;14.42;74.83
45441;BME280;31189;38.790;-77.084;2024-03-07T04:44:47;100642.11;;;14.42;76.55
45441;BME280;31189;38.790;-77.084;2024-03-07T04:47:12;100646.91;;;13.34;80.61
45441;BME280;31189;38.790;-77.084;2024-03-07T04:49:37;100646.66;;;13.48;80.99
45441;BME280;31189;38.790;-77.084;2024-03-07T04:52:04;100636.39;;;14.48;75.23
45441;BME280;31189;38.790;-77.084;2024-03-07T04:54:29;100631.81;;;15.00;73.33
45441;BME280;31189;38.790;-77.084;2024-03-07T04:56:54;100629.93;;;15.18;72.32
45441;BME280;31189;38.790;-77.084;2024-03-07T04:59:21;100628.24;;;14.04;75.38
45441;BME280;31189;38.790;-77.084;2024-03-07T05:01:46;100639.80;;;12.94;82.19
45441;BME280;31189;38.790;-77.084;2024-03-07T05:04:11;100650.50;;;13.71;78.95
45441;BME280;31189;38.790;-77.084;2024-03-07T05:06:36;100644.81;;;13.11;83.27
45441;BME280;31189;38.790;-77.084;2024-03-07T05:09:00;100650.41;;;14.58;76.20
45441;BME280;31189;38.790;-77.084;2024-03-07T05:11:26;100650.54;;;14.13;76.66
45441;BME280;31189;38.790;-77.084;2024-03-07T05:13:51;100648.96;;;14.20;77.49
45441;BME280;31189;38.790;-77.084;2024-03-07T05:16:18;100648.25;;;14.27;76.40
45441;BME280;31189;38.790;-77.084;2024-03-07T05:18:43;100644.73;;;15.35;72.65
45441;BME280;31189;38.790;-77.084;2024-03-07T05:21:08;100640.98;;;15.41;71.03
45441;BME280;31189;38.790;-77.084;2024-03-07T05:23:34;100643.46;;;15.56;69.52
45441;BME280;31189;38.790;-77.084;2024-03-07T05:25:59;100645.81;;;13.70;75.75
45441;BME280;31189;38.790;-77.084;2024-03-07T05:28:25;100642.67;;;14.92;72.35
45441;BME280;31189;38.790;-77.084;2024-03-07T05:30:50;100645.08;;;14.74;72.90
45441;BME280;31189;38.790;-77.084;2024-03-07T05:33:15;100643.61;;;15.36;70.77
45441;BME280;31189;38.790;-77.084;2024-03-07T05:35:41;100644.58;;;13.73;74.81
45441;BME280;31189;38.790;-77.084;2024-03-07T05:38:07;100644.49;;;14.89;71.45
45441;BME280;31189;38.790;-77.084;2024-03-07T05:40:32;100645.60;;;15.46;69.59
45441;BME280;31189;38.790;-77.084;2024-03-07T05:42:58;100649.35;;;14.48;74.20
45441;BME280;31189;38.790;-77.084;2024-03-07T05:45:23;100651.84;;;13.49;77.55
45441;BME280;31189;38.790;-77.084;2024-03-07T05:47:49;100652.98;;;14.90;72.01
45441;BME280;31189;38.790;-77.084;2024-03-07T05:50:14;100647.11;;;15.09;70.89
45441;BME280;31189;38.790;-77.084;2024-03-07T05:52:40;100640.71;;;14.15;75.28
45441;BME280;31189;38.790;-77.084;2024-03-07T05:55:05;100637.16;;;15.45;70.38
45441;BME280;31189;38.790;-77.084;2024-03-07T05:57:30;100635.32;;;14.21;73.66
45441;BME280;31189;38.790;-77.084;2024-03-07T05:59:56;100636.89;;;14.66;71.57
45441;BME280;31189;38.790;-77.084;2024-03-07T06:02:21;100646.29;;;14.47;74.66
45441;BME280;31189;38.790;-77.084;2024-03-07T06:04:47;100651.21;;;14.44;73.40
45441;BME280;31189;38.790;-77.084;2024-03-07T06:07:12;100649.06;;;15.74;69.53
45441;BME280;31189;38.790;-77.084;2024-03-07T06:09:37;100648.36;;;15.10;70.93
45441;BME280;31189;38.790;-77.084;2024-03-07T06:12:03;100647.00;;;14.56;73.37
45441;BME280;31189;38.790;-77.084;2024-03-07T06:14:28;100644.73;;;13.50;78.73
45441;BME280;31189;38.790;-77.084;2024-03-07T06:16:54;100645.38;;;14.65;72.67
45441;BME280;31189;38.790;-77.084;2024-03-07T06:19:19;100647.68;;;14.83;71.27
45441;BME280;31189;38.790;-77.084;2024-03-07T06:21:45;100650.75;;;15.70;68.96
45441;BME280;31189;38.790;-77.084;2024-03-07T06:24:10;100646.44;;;14.99;71.12
45441;BME280;31189;38.790;-77.084;2024-03-07T06:26:36;100645.68;;;15.18;69.49
45441;BME280;31189;38.790;-77.084;2024-03-07T06:29:01;100639.70;;;14.33;71.87
45441;BME280;31189;38.790;-77.084;2024-03-07T06:31:27;100635.74;;;15.33;70.02
45441;BME280;31189;38.790;-77.084;2024-03-07T06:33:52;100633.74;;;15.38;68.59
45441;BME280;31189;38.790;-77.084;2024-03-07T06:36:17;100633.76;;;15.31;68.42
45441;BME280;31189;38.790;-77.084;2024-03-07T06:38:42;100634.42;;;16.37;65.39
45441;BME280;31189;38.790;-77.084;2024-03-07T06:41:08;100634.21;;;16.28;65.07
45441;BME280;31189;38.790;-77.084;2024-03-07T06:43:33;100632.59;;;15.80;65.18
45441;BME280;31189;38.790;-77.084;2024-03-07T06:45:59;100640.62;;;15.35;67.45
45441;BME280;31189;38.790;-77.084;2024-03-07T06:48:24;100645.16;;;14.77;69.62
45441;BME280;31189;38.790;-77.084;2024-03-07T06:50:50;100649.26;;;14.90;70.72
45441;BME280;31189;38.790;-77.084;2024-03-07T06:53:15;100653.75;;;15.47;68.54
45441;BME280;31189;38.790;-77.084;2024-03-07T06:55:41;100647.96;;;15.60;66.68
45441;BME280;31189;38.790;-77.084;2024-03-07T06:58:06;100649.51;;;14.45;70.54
45441;BME280;31189;38.790;-77.084;2024-03-07T07:00:31;100650.95;;;15.23;68.84
45441;BME280;31189;38.790;-77.084;2024-03-07T07:02:57;100642.51;;;15.17;69.02
45441;BME280;31189;38.790;-77.084;2024-03-07T07:05:23;100633.30;;;15.86;66.98
45441;BME280;31189;38.790;-77.084;2024-03-07T07:07:48;100630.76;;;15.79;66.79
45441;BME280;31189;38.790;-77.084;2024-03-07T07:10:14;100625.95;;;15.39;67.48
45441;BME280;31189;38.790;-77.084;2024-03-07T07:12:39;100619.58;;;15.05;69.11
45441;BME280;31189;38.790;-77.084;2024-03-07T07:15:06;100612.35;;;15.82;66.72
45441;BME280;31189;38.790;-77.084;2024-03-07T07:17:30;100616.41;;;16.17;65.60
45441;BME280;31189;38.790;-77.084;2024-03-07T07:19:57;100617.98;;;14.73;69.73
45441;BME280;31189;38.790;-77.084;2024-03-07T07:22:21;100613.42;;;14.69;72.68
45441;BME280;31189;38.790;-77.084;2024-03-07T07:24:47;100615.02;;;13.85;73.93
45441;BME280;31189;38.790;-77.084;2024-03-07T07:27:12;100623.01;;;13.61;76.45
45441;BME280;31189;38.790;-77.084;2024-03-07T07:29:38;100626.22;;;13.20;79.23
45441;BME280;31189;38.790;-77.084;2024-03-07T07:32:04;100630.80;;;13.22;79.34
45441;BME280;31189;38.790;-77.084;2024-03-07T07:34:28;100632.85;;;12.51;82.09
45441;BME280;31189;38.790;-77.084;2024-03-07T07:36:54;100636.77;;;13.56;77.77
45441;BME280;31189;38.790;-77.084;2024-03-07T07:39:20;100638.27;;;13.82;74.52
45441;BME280;31189;38.790;-77.084;2024-03-07T07:41:45;100641.64;;;13.09;79.41
45441;BME280;31189;38.790;-77.084;2024-03-07T07:44:11;100640.31;;;14.87;73.01
45441;BME280;31189;38.790;-77.084;2024-03-07T07:46:36;100636.76;;;14.20;73.08
45441;BME280;31189;38.790;-77.084;2024-03-07T07:49:02;100632.92;;;11.94;86.57
45441;BME280;31189;38.790;-77.084;2024-03-07T07:51:28;100636.12;;;11.56;86.10
45441;BME280;31189;38.790;-77.084;2024-03-07T07:53:53;100637.02;;;12.57;83.48
45441;BME280;31189;38.790;-77.084;2024-03-07T07:56:19;100632.41;;;12.01;90.85
45441;BME280;31189;38.790;-77.084;2024-03-07T07:58:44;100626.35;;;13.22;83.26
45441;BME280;31189;38.790;-77.084;2024-03-07T08:01:10;100624.19;;;15.00;75.66
45441;BME280;31189;38.790;-77.084;2024-03-07T08:03:36;100625.14;;;14.69;73.60
45441;BME280;31189;38.790;-77.084;2024-03-07T08:06:01;100627.92;;;15.01;71.87
45441;BME280;31189;38.790;-77.084;2024-03-07T08:08:27;100631.86;;;15.18;70.56
45441;BME280;31189;38.790;-77.084;2024-03-07T08:10:53;100635.60;;;15.22;70.91
45441;BME280;31189;38.790;-77.084;2024-03-07T08:13:18;100641.53;;;13.72;76.15
45441;BME280;31189;38.790;-77.084;2024-03-07T08:15:44;100644.24;;;13.67;75.99
45441;BME280;31189;38.790;-77.084;2024-03-07T08:18:10;100646.94;;;15.63;68.86
45441;BME280;31189;38.790;-77.084;2024-03-07T08:20:35;100653.21;;;15.21;68.46
45441;BME280;31189;38.790;-77.084;2024-03-07T08:23:00;100657.48;;;14.26;73.57
45441;BME280;31189;38.790;-77.084;2024-03-07T08:25:27;100664.77;;;14.20;74.31
45441;BME280;31189;38.790;-77.084;2024-03-07T08:27:52;100664.52;;;15.04;70.55
45441;BME280;31189;38.790;-77.084;2024-03-07T08:30:17;100662.42;;;11.98;82.25
45441;BME280;31189;38.790;-77.084;2024-03-07T08:32:45;100674.56;;;13.53;77.92
45441;BME280;31189;38.790;-77.084;2024-03-07T08:35:08;100676.83;;;12.98;78.93
45441;BME280;31189;38.790;-77.084;2024-03-07T08:37:35;100679.56;;;11.70;85.74
45441;BME280;31189;38.790;-77.084;2024-03-07T08:40:00;100685.51;;;13.41;78.25
45441;BME280;31189;38.790;-77.084;2024-03-07T08:42:24;100685.36;;;14.68;73.10
45441;BME280;31189;38.790;-77.084;2024-03-07T08:44:50;100687.46;;;14.65;72.58
45441;BME280;31189;38.790;-77.084;2024-03-07T08:47:16;100693.42;;;15.00;71.33
45441;BME280;31189;38.790;-77.084;2024-03-07T08:49:41;100689.90;;;15.61;68.09
45441;BME280;31189;38.790;-77.084;2024-03-07T08:52:07;100692.47;;;12.68;78.83
45441;BME280;31189;38.790;-77.084;2024-03-07T08:54:33;100694.51;;;14.82;72.06
45441;BME280;31189;38.790;-77.084;2024-03-07T08:56:58;100691.07;;;15.16;69.51
45441;BME280;31189;38.790;-77.084;2024-03-07T08:59:24;100693.25;;;14.95;70.72
45441;BME280;31189;38.790;-77.084;2024-03-07T09:01:49;100697.87;;;14.02;71.77
45441;BME280;31189;38.790;-77.084;2024-03-07T09:04:15;100700.22;;;15.05;69.92
45441;BME280;31189;38.790;-77.084;2024-03-07T09:06:41;100700.93;;;15.09;67.73
45441;BME280;31189;38.790;-77.084;2024-03-07T09:09:06;100705.00;;;14.16;73.11
45441;BME280;31189;38.790;-77.084;2024-03-07T09:11:32;100710.73;;;15.52;68.42
45441;BME280;31189;38.790;-77.084;2024-03-07T09:13:57;100715.34;;;15.28;70.32
45441;BME280;31189;38.790;-77.084;2024-03-07T09:16:23;100712.19;;;15.92;66.78
45441;BME280;31189;38.790;-77.084;2024-03-07T09:18:49;100714.57;;;14.25;72.49
45441;BME280;31189;38.790;-77.084;2024-03-07T09:21:14;100712.76;;;13.66;75.52
45441;BME280;31189;38.790;-77.084;2024-03-07T09:23:40;100719.97;;;15.02;70.07
45441;BME280;31189;38.790;-77.084;2024-03-07T09:26:06;100719.67;;;14.90;70.86
45441;BME280;31189;38.790;-77.084;2024-03-07T09:28:31;100722.77;;;14.10;72.21
45441;BME280;31189;38.790;-77.084;2024-03-07T09:30:57;100728.44;;;15.10;69.13
45441;BME280;31189;38.790;-77.084;2024-03-07T09:33:22;100727.01;;;14.23;73.02
45441;BME280;31189;38.790;-77.084;2024-03-07T09:35:48;100735.22;;;13.30;73.89
45441;BME280;31189;38.790;-77.084;2024-03-07T09:38:14;100738.15;;;13.63;75.77
45441;BME280;31189;38.790;-77.084;2024-03-07T09:40:39;100741.73;;;15.06;70.04
45441;BME280;31189;38.790;-77.084;2024-03-07T09:43:06;100743.13;;;15.21;68.95
45441;BME280;31189;38.790;-77.084;2024-03-07T09:45:31;100741.09;;;14.71;70.57
45441;BME280;31189;38.790;-77.084;2024-03-07T09:47:56;100745.18;;;15.58;66.50
45441;BME280;31189;38.790;-77.084;2024-03-07T09:50:22;100754.06;;;16.48;64.07
45441;BME280;31189;38.790;-77.084;2024-03-07T09:52:47;100750.56;;;16.52;63.67
45441;BME280;31189;38.790;-77.084;2024-03-07T09:55:12;100757.02;;;16.48;63.51
45441;BME280;31189;38.790;-77.084;2024-03-07T09:57:38;100758.97;;;14.37;70.45
45441;BME280;31189;38.790;-77.084;2024-03-07T10:00:04;100759.36;;;14.95;68.64
45441;BME280;31189;38.790;-77.084;2024-03-07T10:02:30;100767.71;;;14.16;71.76
45441;BME280;31189;38.790;-77.084;2024-03-07T10:04:57;100771.82;;;14.94;71.19
45441;BME280;31189;38.790;-77.084;2024-03-07T10:07:20;100774.71;;;15.49;67.95
45441;BME280;31189;38.790;-77.084;2024-03-07T10:09:46;100777.51;;;15.37;67.16
45441;BME280;31189;38.790;-77.084;2024-03-07T10:12:11;100782.29;;;15.41;66.63
45441;BME280;31189;38.790;-77.084;2024-03-07T10:14:36;100782.01;;;15.92;65.59
45441;BME280;31189;38.790;-77.084;2024-03-07T10:17:02;100787.39;;;15.17;67.62
45441;BME280;31189;38.790;-77.084;2024-03-07T10:19:29;100784.26;;;15.57;65.57
45441;BME280;31189;38.790;-77.084;2024-03-07T10:21:53;100784.07;;;12.76;77.07
45441;BME280;31189;38.790;-77.084;2024-03-07T10:24:24;100785.87;;;14.02;71.78
45441;BME280;31189;38.790;-77.084;2024-03-07T10:26:44;100783.35;;;13.95;72.04
45441;BME280;31189;38.790;-77.084;2024-03-07T10:29:09;100783.97;;;14.00;72.01
45441;BME280;31189;38.790;-77.084;2024-03-07T10:31:35;100781.37;;;14.95;69.76
45441;BME280;31189;38.790;-77.084;2024-03-07T10:34:00;100775.14;;;14.72;70.19
45441;BME280;31189;38.790;-77.084;2024-03-07T10:36:25;100770.14;;;14.45;73.08
45441;BME280;31189;38.790;-77.084;2024-03-07T10:38:51;100766.66;;;15.18;69.67
45441;BME280;31189;38.790;-77.084;2024-03-07T10:41:18;100768.12;;;14.52;71.40
45441;BME280;31189;38.790;-77.084;2024-03-07T10:43:43;100770.11;;;12.93;77.69
45441;BME280;31189;38.790;-77.084;2024-03-07T10:46:11;100774.23;;;14.39;73.37
45441;BME280;31189;38.790;-77.084;2024-03-07T10:48:38;100774.16;;;13.74;74.29
45441;BME280;31189;38.790;-77.084;2024-03-07T10:51:06;100776.07;;;13.45;75.95
45441;BME280;31189;38.790;-77.084;2024-03-07T10:53:31;100785.32;;;14.19;72.79
45441;BME280;31189;38.790;-77.084;2024-03-07T10:56:00;100789.93;;;12.97;76.96
45441;BME280;31189;38.790;-77.084;2024-03-07T10:58:23;100787.51;;;12.70;78.72
45441;BME280;31189;38.790;-77.084;2024-03-07T11:00:42;100790.52;;;14.33;72.97
45441;BME280;31189;38.790;-77.084;2024-03-07T11:03:07;100792.55;;;12.98;79.30
45441;BME280;31189;38.790;-77.084;2024-03-07T11:05:32;100793.03;;;14.76;71.51
45441;BME280;31189;38.790;-77.084;2024-03-07T11:07:58;100792.59;;;14.20;71.25
45441;BME280;31189;38.790;-77.084;2024-03-07T11:10:23;100786.15;;;13.41;76.13
45441;BME280;31189;38.790;-77.084;2024-03-07T11:12:49;100787.85;;;14.23;72.77
45441;BME280;31189;38.790;-77.084;2024-03-07T11:15:15;100793.84;;;15.14;69.33
45441;BME280;31189;38.790;-77.084;2024-03-07T11:17:40;100809.44;;;14.71;68.63
45441;BME280;31189;38.790;-77.084;2024-03-07T11:20:18;100809.53;;;15.23;67.69
45441;BME280;31189;38.790;-77.084;2024-03-07T11:22:31;100817.23;;;15.56;66.22
45441;BME280;31189;38.790;-77.084;2024-03-07T11:25:02;100818.14;;;12.50;76.83
45441;BME280;31189;38.790;-77.084;2024-03-07T11:27:22;100815.54;;;12.85;78.80
45441;BME280;31189;38.790;-77.084;2024-03-07T11:29:49;100820.16;;;13.86;74.74
45441;BME280;31189;38.790;-77.084;2024-03-07T11:32:14;100819.11;;;12.33;80.91
45441;BME280;31189;38.790;-77.084;2024-03-07T11:34:40;100824.48;;;13.62;76.91
45441;BME280;31189;38.790;-77.084;2024-03-07T11:37:05;100822.75;;;12.84;77.88
45441;BME280;31189;38.790;-77.084;2024-03-07T11:39:40;100828.43;;;12.32;80.73
45441;BME280;31189;38.790;-77.084;2024-03-07T11:41:56;100836.92;;;11.71;88.21
45441;BME280;31189;38.790;-77.084;2024-03-07T11:44:21;100845.12;;;9.55;100.00
45441;BME280;31189;38.790;-77.084;2024-03-07T11:46:47;100854.10;;;11.33;93.21
45441;BME280;31189;38.790;-77.084;2024-03-07T11:49:14;100860.95;;;11.61;90.38
45441;BME280;31189;38.790;-77.084;2024-03-07T11:51:38;100864.72;;;11.10;89.20
45441;BME280;31189;38.790;-77.084;2024-03-07T11:54:04;100873.76;;;12.28;85.05
45441;BME280;31189;38.790;-77.084;2024-03-07T11:56:29;100882.47;;;10.52;95.60
45441;BME280;31189;38.790;-77.084;2024-03-07T11:58:55;100890.01;;;12.48;84.53
45441;BME280;31189;38.790;-77.084;2024-03-07T12:01:22;100902.89;;;13.76;78.26
45441;BME280;31189;38.790;-77.084;2024-03-07T12:03:46;100905.01;;;13.51;75.63
45441;BME280;31189;38.790;-77.084;2024-03-07T12:06:12;100905.11;;;12.69;79.29
45441;BME280;31189;38.790;-77.084;2024-03-07T12:08:37;100908.90;;;13.35;78.18
45441;BME280;31189;38.790;-77.084;2024-03-07T12:11:03;100917.17;;;13.52;78.38
45441;BME280;31189;38.790;-77.084;2024-03-07T12:13:29;100922.63;;;14.17;73.84
45441;BME280;31189;38.790;-77.084;2024-03-07T12:15:54;100942.79;;;12.22;82.37
45441;BME280;31189;38.790;-77.084;2024-03-07T12:18:21;100937.99;;;12.44;84.91
45441;BME280;31189;38.790;-77.084;2024-03-07T12:20:46;100943.53;;;11.14;92.07